Impacts METAR Board
IDs:

KIAH - Houston/Bush Intl, TX, US

Updated at: 0700 UTC 24 Sep 2018
Potential Impact None Slight Moderate High
Time 23/19Z 23/20Z 23/21Z 23/22Z 23/23Z 24/00Z 24/01Z 24/02Z 24/03Z 24/04Z 24/05Z 24/06Z 24/07Z
Temp83 83 82 81 79 78 77 76 75 75 73 72 72
Dewpt71 71 70 70 69 69 69 69 69 71 71 71 71
Altim29.89 29.86 29.85 29.85 29.85 29.85 29.86 29.87 29.88 29.89 29.90 29.90 29.89
VIS10 10 10 10 10 10 10 10 10 10 10 10 10
CIG250 250 -- 34 33 36 36 -- -- 47 46 -- 39
CoverBKNBKNSCTBKNBKNBKNBKNSCTSCTBKNBKNSCTBKN
FltCatVFRVFRVFRVFRVFRVFRVFRVFRVFRVFRVFRVFRVFR
WX--------------------------
WDir2602302702802802902802302700000
WSpd8 10 8 8 6 7 5 4 3 0 0 0 0
WGst-- -- -- -- -- -- -- -- -- -- -- -- --
Raw hourly METARs
KIAH 231853Z 26008KT 10SM SCT032 BKN250 28/22 A2989 RMK AO2 SLP121 T02830217
KIAH 231953Z 23010KT 10SM SCT034 BKN250 28/22 A2986 RMK AO2 SLP112 T02830217
KIAH 232053Z 27008KT 10SM SCT037 SCT250 28/21 A2985 RMK AO2 SLP107 T02780211 56023
KIAH 232153Z 28008KT 10SM BKN034 BKN250 27/21 A2985 RMK AO2 SLP106 T02720211
KIAH 232253Z 28006KT 10SM BKN033 BKN040 BKN250 26/21 A2985 RMK AO2 SLP106 T02610206
KIAH 232353Z 29007KT 10SM BKN036 26/21 A2985 RMK AO2 SLP106 T02560206 10289 20256 56000
KIAH 240053Z 28005KT 10SM BKN036 25/21 A2986 RMK AO2 SLP110 T02500206
KIAH 240153Z 23004KT 10SM SCT038 24/21 A2987 RMK AO2 SLP114 T02440206
KIAH 240253Z 27003KT 10SM SCT038 24/21 A2988 RMK AO2 SLP119 T02390206 53013
KIAH 240353Z 00000KT 10SM BKN047 24/22 A2989 RMK AO2 SLP122 T02390217
KIAH 240453Z 00000KT 10SM BKN046 23/22 A2990 RMK AO2 SLP124 T02280217
KIAH 240553Z 00000KT 10SM SCT042 SCT250 22/22 A2990 RMK AO2 SLP123 T02220217 10256 20222 402890211 50004
KIAH 240653Z 00000KT 10SM BKN039 BKN250 22/22 A2989 RMK AO2 SLP120 T02220217



Page loaded:  07:14 UTC  |   12:14 AM Pacific  |   01:14 AM Mountain  |   02:14 AM Central  |   03:14 AM Eastern

 

ADVISORIES

FORECASTS

FORECASTS

OBSERVATIONS

USER TOOLS

ABOUT US